Terminal Aerodrome Forecast
Issued by NWS

Current Version | Previous Version | Text Only | Print | Product List | Glossary On
Versions: 1 2 3 4 5 6 7 8 9 10 11 12 13 14 15
000
FTUS41 KCAR 181132
TAFBHB
TAF
KBHB 181132Z 1812/1912 00000KT P6SM OVC150
     FM181600 VRB03KT P6SM VCSH OVC050
     FM181800 17004KT 2SM -SN OVC020
     FM182100 17005KT 1SM -SN OVC012
     FM190300 26005KT 5SM -SHSN OVC015
     FM190600 26005KT P6SM OVC010=

USA.gov is the U.S. government's official web portal to all federal, state and local government web resources and services.